createdAt,value
2022-10-14T00:01:32.996Z,19.63
2022-10-14T00:04:00.256Z,21.05
2022-10-14T00:06:29.975Z,20.10
2022-10-14T00:09:02.045Z,19.15
2022-10-14T00:11:32.444Z,16.58
2022-10-14T00:14:05.521Z,17.40
2022-10-14T00:16:34.888Z,18.65
2022-10-14T00:19:01.910Z,17.33
2022-10-14T00:21:29.888Z,18.38
2022-10-14T00:23:57.758Z,17.00
2022-10-14T00:26:34.038Z,15.95
2022-10-14T00:29:02.148Z,20.92
2022-10-14T00:31:29.483Z,26.30
2022-10-14T00:33:56.575Z,33.35
2022-10-14T00:36:24.649Z,34.20
2022-10-14T00:38:52.904Z,33.92
2022-10-14T00:41:24.082Z,35.25
2022-10-14T00:43:57.257Z,32.67
2022-10-14T00:46:25.413Z,38.42
2022-10-14T00:48:52.580Z,31.95
2022-10-14T00:51:19.982Z,35.30
2022-10-14T00:53:46.783Z,39.42
2022-10-14T00:56:15.739Z,39.08
2022-10-14T00:58:44.604Z,40.38
2022-10-14T01:01:11.906Z,40.03
2022-10-14T01:03:40.216Z,45.70
2022-10-14T01:06:09.734Z,43.70
2022-10-14T01:09:04.832Z,42.63
2022-10-14T01:11:37.119Z,43.42
2022-10-14T01:14:06.522Z,40.45
2022-10-14T01:16:58.000Z,36.85
2022-10-14T01:19:52.881Z,39.72
2022-10-14T01:22:33.072Z,37.53
2022-10-14T01:25:08.411Z,39.38
2022-10-14T01:28:04.045Z,41.13
2022-10-14T01:30:40.257Z,42.17
2022-10-14T01:33:14.493Z,33.20
2022-10-14T01:35:51.073Z,34.25
2022-10-14T01:38:27.469Z,37.80
2022-10-14T01:41:17.769Z,29.40
2022-10-14T01:43:47.780Z,31.23
2022-10-14T01:46:16.176Z,30.67
2022-10-14T01:48:49.147Z,35.08
2022-10-14T01:51:21.979Z,29.98
2022-10-14T01:53:57.846Z,29.50
2022-10-14T01:56:27.713Z,30.30
2022-10-14T01:58:55.013Z,29.75
2022-10-14T02:01:21.611Z,29.60
2022-10-14T02:03:48.537Z,33.10
2022-10-14T02:06:36.059Z,36.38
2022-10-14T02:09:20.631Z,30.52
2022-10-14T02:12:23.469Z,33.70
2022-10-14T02:15:13.203Z,28.75
2022-10-14T02:17:48.191Z,29.02
2022-10-14T02:20:31.187Z,31.25
2022-10-14T02:23:08.224Z,30.80
2022-10-14T02:25:39.222Z,26.88
2022-10-14T02:28:09.095Z,27.95
2022-10-14T02:30:41.953Z,26.42
2022-10-14T02:33:08.711Z,31.20
2022-10-14T02:35:37.589Z,28.27
2022-10-14T02:38:06.306Z,24.67
2022-10-14T02:40:35.916Z,26.70
2022-10-14T02:43:02.470Z,25.05
2022-10-14T02:45:29.897Z,23.85
2022-10-14T02:47:56.394Z,21.67
2022-10-14T02:50:24.223Z,17.88
2022-10-14T02:52:50.722Z,14.98
2022-10-14T02:55:17.275Z,15.05
2022-10-14T02:57:43.738Z,16.83
2022-10-14T03:00:11.027Z,17.67
2022-10-14T03:02:37.522Z,14.13
2022-10-14T03:05:04.469Z,15.48
2022-10-14T03:07:31.055Z,15.45
2022-10-14T03:10:00.702Z,15.18
2022-10-14T03:12:27.221Z,12.48
2022-10-14T03:14:53.762Z,10.68
2022-10-14T03:17:20.441Z,10.10
2022-10-14T03:19:47.008Z,11.82
2022-10-14T03:22:13.499Z,11.07
2022-10-14T03:24:39.967Z,11.30
2022-10-14T03:27:06.502Z,12.00
2022-10-14T03:29:34.081Z,10.20
2022-10-14T03:32:00.592Z,12.82
2022-10-14T03:34:27.052Z,13.30
2022-10-14T03:36:53.550Z,8.73
2022-10-14T03:39:20.494Z,9.80
2022-10-14T03:41:47.244Z,9.23
2022-10-14T03:44:13.700Z,9.07
2022-10-14T03:46:40.173Z,9.80
2022-10-14T03:49:06.673Z,8.77
2022-10-14T03:51:33.246Z,5.38
2022-10-14T03:53:59.927Z,5.55
2022-10-14T03:56:26.434Z,6.75
2022-10-14T03:58:52.933Z,9.00
2022-10-14T04:01:19.461Z,5.85
2022-10-14T04:03:50.758Z,7.03
2022-10-14T04:06:17.486Z,7.10
2022-10-14T04:08:44.453Z,7.13
2022-10-14T04:11:11.141Z,7.15
2022-10-14T04:13:37.664Z,6.15
2022-10-14T04:16:05.276Z,4.85
2022-10-14T04:18:34.856Z,6.03
2022-10-14T04:21:10.725Z,5.72
2022-10-14T04:23:37.610Z,5.63
2022-10-14T04:26:05.757Z,6.95
2022-10-14T04:28:33.040Z,5.93
2022-10-14T04:30:59.713Z,5.57
2022-10-14T04:33:26.554Z,5.63
2022-10-14T04:36:00.411Z,5.80
2022-10-14T04:38:27.369Z,5.00
2022-10-14T04:40:54.039Z,5.35
2022-10-14T04:43:20.883Z,7.20
2022-10-14T04:45:47.633Z,6.78
2022-10-14T04:48:14.584Z,5.13
2022-10-14T04:50:41.079Z,5.45
2022-10-14T04:53:13.065Z,5.90
2022-10-14T04:55:40.064Z,7.53
2022-10-14T04:58:06.616Z,6.45
2022-10-14T05:00:35.258Z,7.05
2022-10-14T05:03:01.749Z,5.97
2022-10-14T05:05:28.490Z,6.13
2022-10-14T05:07:55.044Z,8.95
2022-10-14T05:10:22.367Z,6.22
2022-10-14T05:12:49.677Z,7.53
2022-10-14T05:15:16.777Z,6.72
2022-10-14T05:17:44.742Z,5.95
2022-10-14T05:20:12.217Z,6.90
2022-10-14T05:22:39.333Z,6.95
2022-10-14T05:25:06.709Z,6.05
2022-10-14T05:27:33.256Z,6.60
2022-10-14T05:29:59.739Z,7.43
2022-10-14T05:32:26.227Z,8.68
2022-10-14T05:34:52.907Z,8.20
2022-10-14T05:37:19.572Z,8.32
2022-10-14T05:39:46.554Z,8.02
2022-10-14T05:42:13.079Z,8.55
2022-10-14T05:44:39.639Z,8.98
2022-10-14T05:47:06.171Z,7.40
2022-10-14T05:49:32.668Z,10.48
2022-10-14T05:51:59.187Z,8.10
2022-10-14T05:54:25.676Z,7.68
2022-10-14T05:56:52.529Z,6.90
2022-10-14T05:59:19.517Z,8.45
2022-10-14T06:01:46.020Z,10.85
2022-10-14T06:04:20.486Z,7.97
2022-10-14T06:06:47.024Z,7.80
2022-10-14T06:09:13.822Z,7.18
2022-10-14T06:11:40.545Z,12.35
2022-10-14T06:14:07.076Z,9.00
2022-10-14T06:16:34.084Z,6.43
2022-10-14T06:19:00.639Z,5.35
2022-10-14T06:21:27.475Z,6.15
2022-10-14T06:23:53.950Z,6.30
2022-10-14T06:26:20.861Z,9.05
2022-10-14T06:28:47.478Z,7.53
2022-10-14T06:31:13.952Z,6.82
2022-10-14T06:33:40.522Z,5.55
2022-10-14T06:36:07.604Z,5.38
2022-10-14T06:38:34.131Z,6.25
2022-10-14T06:41:00.978Z,5.40
2022-10-14T06:43:27.483Z,6.55
2022-10-14T06:45:57.060Z,7.40
2022-10-14T06:48:24.981Z,5.40
2022-10-14T06:50:52.215Z,8.52
2022-10-14T06:53:19.039Z,7.20
2022-10-14T06:55:45.617Z,5.13
2022-10-14T06:58:12.163Z,5.15
2022-10-14T07:00:38.733Z,4.88
2022-10-14T07:03:05.297Z,6.38
2022-10-14T07:05:31.812Z,5.70
2022-10-14T07:07:58.714Z,6.07
2022-10-14T07:10:25.792Z,4.40
2022-10-14T07:12:55.818Z,5.22
2022-10-14T07:17:49.113Z,5.55
2022-10-14T07:20:16.325Z,4.05
2022-10-14T07:22:43.333Z,4.07
2022-10-14T07:25:10.205Z,5.30
2022-10-14T07:27:36.780Z,3.47
2022-10-14T07:30:05.178Z,3.38
2022-10-14T07:32:36.848Z,4.88
2022-10-14T07:35:04.034Z,3.80
2022-10-14T07:37:30.630Z,3.10
2022-10-14T07:39:57.405Z,5.47
2022-10-14T07:42:23.968Z,3.90
2022-10-14T07:44:50.535Z,3.88
2022-10-14T07:47:17.034Z,4.13
2022-10-14T07:49:43.602Z,5.00
2022-10-14T07:52:10.069Z,4.18
2022-10-14T07:54:36.736Z,5.80
2022-10-14T07:57:03.411Z,3.03
2022-10-14T07:59:32.814Z,2.42
2022-10-14T08:01:59.496Z,3.97
2022-10-14T08:04:26.332Z,2.92
2022-10-14T08:06:52.853Z,5.00
2022-10-14T08:09:20.170Z,3.10
2022-10-14T08:11:46.967Z,2.40
2022-10-14T08:14:14.069Z,3.42
2022-10-14T08:16:40.880Z,2.03
2022-10-14T08:19:14.131Z,3.53
2022-10-14T08:21:42.694Z,4.80
2022-10-14T08:24:09.701Z,5.45
2022-10-14T08:26:38.912Z,2.75
2022-10-14T08:29:09.725Z,4.85
2022-10-14T08:31:36.533Z,1.50
2022-10-14T08:34:03.126Z,4.40
2022-10-14T08:36:29.640Z,1.98
2022-10-14T08:38:56.267Z,1.35
2022-10-14T08:42:06.950Z,2.00
2022-10-14T08:44:45.720Z,2.80
2022-10-14T08:47:15.683Z,3.03
2022-10-14T08:50:04.774Z,4.80
2022-10-14T08:52:38.479Z,4.57
2022-10-14T08:55:19.333Z,3.33
2022-10-14T08:57:57.050Z,2.85
2022-10-14T09:00:23.644Z,2.75
2022-10-14T09:02:51.836Z,3.55
2022-10-14T09:05:22.661Z,4.00
2022-10-14T09:07:53.969Z,2.03
2022-10-14T09:10:42.195Z,1.60
2022-10-14T09:13:18.474Z,3.90
2022-10-14T09:15:50.289Z,2.22
2022-10-14T09:18:30.245Z,5.00
2022-10-14T09:20:58.413Z,3.03
2022-10-14T09:23:27.631Z,3.20
2022-10-14T09:25:58.728Z,2.08
2022-10-14T09:28:44.769Z,2.97
2022-10-14T09:31:13.455Z,2.00
2022-10-14T09:33:42.946Z,6.27
2022-10-14T09:36:21.925Z,3.20
2022-10-14T09:38:52.525Z,3.88
2022-10-14T09:41:25.522Z,2.53
2022-10-14T09:44:21.563Z,2.95
2022-10-14T09:47:00.096Z,3.53
2022-10-14T09:49:40.369Z,4.28
2022-10-14T09:52:08.523Z,3.55
2022-10-14T09:54:35.420Z,1.80
2022-10-14T09:57:08.192Z,2.53
2022-10-14T09:59:50.745Z,5.05
2022-10-14T10:02:24.543Z,3.47
2022-10-14T10:04:52.316Z,2.13
2022-10-14T10:07:37.058Z,5.97
2022-10-14T10:10:18.675Z,3.83
2022-10-14T10:12:47.176Z,2.90
2022-10-14T10:15:19.836Z,2.28
2022-10-14T10:17:47.894Z,2.67
2022-10-14T10:20:31.952Z,4.60
2022-10-14T10:23:25.400Z,3.97
2022-10-14T10:25:52.901Z,2.03
2022-10-14T10:28:31.038Z,5.60
2022-10-14T10:31:43.265Z,5.20
2022-10-14T10:34:29.047Z,2.05
2022-10-14T10:37:16.938Z,9.38
2022-10-14T10:40:03.106Z,2.80
2022-10-14T10:42:39.759Z,3.92
2022-10-14T10:45:37.067Z,5.68
2022-10-14T10:48:21.133Z,2.83
2022-10-14T10:50:56.299Z,2.90
2022-10-14T10:53:41.290Z,3.15
2022-10-14T10:56:35.165Z,5.25
2022-10-14T10:59:20.492Z,3.15
2022-10-14T11:02:10.181Z,4.13
2022-10-14T11:04:47.858Z,3.83
2022-10-14T11:07:55.903Z,3.72
2022-10-14T11:10:46.963Z,3.33
2022-10-14T11:13:22.288Z,3.00
2022-10-14T11:16:05.448Z,2.05
2022-10-14T11:18:55.079Z,2.58
2022-10-14T11:21:53.677Z,4.68
2022-10-14T11:24:58.666Z,4.22
2022-10-14T11:27:40.999Z,6.35
2022-10-14T11:30:16.297Z,3.42
2022-10-14T11:33:00.094Z,5.40
2022-10-14T11:35:51.093Z,3.30
2022-10-14T11:38:29.621Z,2.83
2022-10-14T11:41:33.030Z,2.58
2022-10-14T11:44:13.247Z,3.35
2022-10-14T11:46:47.514Z,2.90
2022-10-14T11:49:22.374Z,4.95
2022-10-14T11:52:07.686Z,1.98
2022-10-14T11:54:44.130Z,3.38
2022-10-14T11:57:32.680Z,2.72
2022-10-14T12:00:42.178Z,4.35
2022-10-14T12:03:21.580Z,1.67
2022-10-14T12:06:04.394Z,1.55
2022-10-14T12:08:41.996Z,3.97
2022-10-14T12:11:39.251Z,3.95
2022-10-14T12:14:43.608Z,1.95
2022-10-14T12:17:23.054Z,2.33
2022-10-14T12:19:51.265Z,3.05
2022-10-14T12:22:25.045Z,2.90
2022-10-14T12:24:59.664Z,1.45
2022-10-14T12:27:28.451Z,2.78
2022-10-14T12:29:58.983Z,2.15
2022-10-14T12:32:27.737Z,3.35
2022-10-14T12:34:56.794Z,5.00
2022-10-14T12:37:32.719Z,3.00
2022-10-14T12:40:02.528Z,3.05
2022-10-14T12:43:07.685Z,2.65
2022-10-14T12:45:35.871Z,2.13
2022-10-14T12:48:04.447Z,4.50
2022-10-14T12:50:36.807Z,3.75
2022-10-14T12:53:08.430Z,1.30
2022-10-14T12:55:51.573Z,3.08
2022-10-14T12:58:28.869Z,1.83
2022-10-14T13:01:17.848Z,1.35
2022-10-14T13:03:53.074Z,2.78
2022-10-14T13:06:36.969Z,2.38
2022-10-14T13:09:12.447Z,2.40
2022-10-14T13:12:06.153Z,2.67
2022-10-14T13:14:53.747Z,3.28
2022-10-14T13:17:45.773Z,2.45
2022-10-14T13:20:33.965Z,4.88
2022-10-14T13:23:31.611Z,2.25
2022-10-14T13:26:21.333Z,2.20
2022-10-14T13:31:30.535Z,1.80
2022-10-14T13:34:12.746Z,1.65
2022-10-14T13:36:56.654Z,2.15
2022-10-14T13:39:23.552Z,2.15
2022-10-14T13:41:50.481Z,3.95
2022-10-14T13:44:21.841Z,2.10
2022-10-14T13:46:49.966Z,2.17
2022-10-14T13:49:24.420Z,2.33
2022-10-14T13:52:01.770Z,3.17
2022-10-14T13:54:32.584Z,2.20
2022-10-14T14:02:44.604Z,2.28
2022-10-14T14:05:16.284Z,3.60
2022-10-14T14:10:30.774Z,2.35
2022-10-14T14:12:59.803Z,1.90
2022-10-14T14:15:29.090Z,1.60
2022-10-14T14:17:55.653Z,1.95
2022-10-14T14:20:26.355Z,1.70
2022-10-14T14:22:52.845Z,1.63
2022-10-14T14:25:34.619Z,1.40
2022-10-14T14:28:05.653Z,4.00
2022-10-14T14:30:35.141Z,1.48
2022-10-14T14:33:15.070Z,1.60
2022-10-14T14:38:33.155Z,2.70
2022-10-14T14:41:22.495Z,2.17
2022-10-14T14:44:07.645Z,2.45
2022-10-14T14:46:40.755Z,1.58
2022-10-14T14:49:08.697Z,1.30
2022-10-14T14:51:38.041Z,1.52
2022-10-14T14:54:06.249Z,2.45
2022-10-14T14:56:40.079Z,3.38
2022-10-14T14:59:37.577Z,3.47
2022-10-14T15:02:15.626Z,2.85
2022-10-14T15:04:42.617Z,2.70
2022-10-14T15:07:21.644Z,2.63
2022-10-14T15:09:53.853Z,3.78
2022-10-14T15:12:34.199Z,2.45
2022-10-14T15:15:02.399Z,2.50
2022-10-14T15:17:34.248Z,8.60
2022-10-14T15:20:30.620Z,9.93
2022-10-14T15:22:57.140Z,5.30
2022-10-14T15:25:27.941Z,5.65
2022-10-14T15:27:59.407Z,3.60
2022-10-14T15:30:27.431Z,2.90
2022-10-14T15:32:59.530Z,3.38
2022-10-14T15:35:27.332Z,3.85
2022-10-14T15:37:54.158Z,4.32
2022-10-14T15:40:26.075Z,5.85
2022-10-14T15:42:52.918Z,4.93
2022-10-14T15:45:19.993Z,6.72
2022-10-14T15:47:53.353Z,4.75
2022-10-14T15:50:23.492Z,4.20
2022-10-14T15:52:53.373Z,3.60
2022-10-14T15:55:35.282Z,9.32
2022-10-14T15:58:02.591Z,5.18
2022-10-14T16:00:29.349Z,24.85
2022-10-14T16:03:00.839Z,10.02
2022-10-14T16:05:29.462Z,6.47
2022-10-14T16:07:56.784Z,8.77
2022-10-14T16:10:24.711Z,3.72
2022-10-14T16:12:51.927Z,5.13
2022-10-14T16:15:32.935Z,4.80
2022-10-14T16:17:59.471Z,3.38
2022-10-14T16:20:26.967Z,3.70
2022-10-14T16:22:54.102Z,8.70
2022-10-14T16:25:25.240Z,4.80
2022-10-14T16:27:52.553Z,6.85
2022-10-14T16:30:19.645Z,7.88
2022-10-14T16:32:46.199Z,9.75
2022-10-14T16:35:12.876Z,4.72
2022-10-14T16:37:41.364Z,9.00
2022-10-14T16:40:08.419Z,5.95
2022-10-14T16:42:34.891Z,5.13
2022-10-14T16:45:01.406Z,7.40
2022-10-14T16:47:28.283Z,6.78
2022-10-14T16:49:54.844Z,6.50
2022-10-14T16:52:21.874Z,7.25
2022-10-14T16:54:48.635Z,9.48
2022-10-14T16:57:16.867Z,6.70
2022-10-14T16:59:43.369Z,6.45
2022-10-14T17:02:15.252Z,6.93
2022-10-14T17:04:42.405Z,6.63
2022-10-14T17:07:09.804Z,6.30
2022-10-14T17:09:36.723Z,4.60
2022-10-14T17:12:06.920Z,6.35
2022-10-14T17:14:36.419Z,9.38
2022-10-14T17:17:02.922Z,6.00
2022-10-14T17:19:29.565Z,7.93
2022-10-14T17:21:56.098Z,10.07
2022-10-14T17:24:23.239Z,10.38
2022-10-14T17:26:50.440Z,12.27
2022-10-14T17:29:17.015Z,8.02
2022-10-14T17:31:44.045Z,10.20
2022-10-14T17:34:10.555Z,13.57
2022-10-14T17:36:37.679Z,9.40
2022-10-14T17:39:04.816Z,7.97
2022-10-14T17:41:31.790Z,6.75
2022-10-14T17:44:00.032Z,4.75
2022-10-14T17:46:29.173Z,5.55
2022-10-14T17:48:58.166Z,5.90
2022-10-14T17:51:25.655Z,5.68
2022-10-14T17:53:54.086Z,4.65
2022-10-14T17:56:20.936Z,4.80
2022-10-14T17:58:47.434Z,3.28
2022-10-14T18:01:16.118Z,4.15
2022-10-14T18:03:47.299Z,4.72
2022-10-14T18:06:15.736Z,5.40
2022-10-14T18:08:44.148Z,4.68
2022-10-14T18:11:12.371Z,3.35
2022-10-14T18:16:14.369Z,7.88
2022-10-14T18:18:41.978Z,3.95
2022-10-14T18:21:09.708Z,5.50
2022-10-14T18:23:39.077Z,7.25
2022-10-14T18:26:17.440Z,13.65
2022-10-14T18:28:47.804Z,7.28
2022-10-14T18:31:16.963Z,8.80
2022-10-14T18:33:44.934Z,9.30
2022-10-14T18:36:14.446Z,6.40
2022-10-14T18:38:41.490Z,8.82
2022-10-14T18:41:11.972Z,8.70
2022-10-14T18:43:39.218Z,10.82
2022-10-14T18:46:10.592Z,10.88
2022-10-14T18:48:37.498Z,6.30
2022-10-14T18:51:05.279Z,5.30
2022-10-14T18:53:33.290Z,8.05
2022-10-14T18:56:08.384Z,6.95
2022-10-14T18:58:38.483Z,8.68
2022-10-14T19:01:07.793Z,9.57
2022-10-14T19:03:34.896Z,8.93
2022-10-14T19:06:02.155Z,7.30
2022-10-14T19:08:28.664Z,9.57
2022-10-14T19:11:05.981Z,8.90
2022-10-14T19:13:33.019Z,7.75
2022-10-14T19:16:04.727Z,10.93
2022-10-14T19:18:31.673Z,8.30
2022-10-14T19:21:08.610Z,5.13
2022-10-14T19:23:45.055Z,4.72
2022-10-14T19:26:14.457Z,9.90
2022-10-14T19:28:41.226Z,5.72
2022-10-14T19:31:12.455Z,8.55
2022-10-14T19:33:40.187Z,8.20
2022-10-14T19:36:07.684Z,5.88
2022-10-14T19:38:35.751Z,11.02
2022-10-14T19:41:04.752Z,7.88
2022-10-14T19:43:35.717Z,6.63
2022-10-14T19:46:10.755Z,4.45
2022-10-14T19:48:38.382Z,5.53
2022-10-14T19:51:12.129Z,3.80
2022-10-14T19:53:39.295Z,5.22
2022-10-14T19:56:08.233Z,5.50
2022-10-14T19:58:36.754Z,5.32
2022-10-14T20:01:14.010Z,8.18
2022-10-14T20:03:41.269Z,6.40
2022-10-14T20:06:08.947Z,6.45
2022-10-14T20:08:36.470Z,5.22
2022-10-14T20:11:06.802Z,5.93
2022-10-14T20:13:36.392Z,4.80
2022-10-14T20:16:04.942Z,4.78
2022-10-14T20:18:31.755Z,6.85
2022-10-14T20:20:58.326Z,4.72
2022-10-14T20:23:25.369Z,4.18
2022-10-14T20:25:51.934Z,4.25
2022-10-14T20:28:21.094Z,5.10
2022-10-14T20:30:48.309Z,4.97
2022-10-14T20:33:14.968Z,4.93
2022-10-14T20:35:41.509Z,7.60
2022-10-14T20:38:08.011Z,6.35
2022-10-14T20:40:36.129Z,5.20
2022-10-14T20:43:03.996Z,7.32
2022-10-14T20:45:30.609Z,7.72
2022-10-14T20:47:57.104Z,9.48
2022-10-14T20:50:23.608Z,8.55
2022-10-14T20:52:50.111Z,8.20
2022-10-14T20:55:16.676Z,4.80
2022-10-14T20:57:43.153Z,4.57
2022-10-14T21:00:10.170Z,8.70
2022-10-14T21:02:36.768Z,9.15
2022-10-14T21:05:03.721Z,12.20
2022-10-14T21:07:30.230Z,5.03
2022-10-14T21:09:56.707Z,7.03
2022-10-14T21:12:23.491Z,6.85
2022-10-14T21:14:50.159Z,9.20
2022-10-14T21:17:16.706Z,6.53
2022-10-14T21:19:43.339Z,5.97
2022-10-14T21:22:09.886Z,7.03
2022-10-14T21:24:40.644Z,6.68
2022-10-14T21:27:07.627Z,8.38
2022-10-14T21:29:34.200Z,7.15
2022-10-14T21:32:02.224Z,6.85
2022-10-14T21:34:30.043Z,7.30
2022-10-14T21:36:56.905Z,8.77
2022-10-14T21:39:24.287Z,6.72
2022-10-14T21:41:51.033Z,8.32
2022-10-14T21:44:20.138Z,8.55
2022-10-14T21:46:47.869Z,6.73
2022-10-14T21:49:14.384Z,7.75
2022-10-14T21:51:40.945Z,9.20
2022-10-14T21:54:12.270Z,11.10
2022-10-14T21:56:39.071Z,8.52
2022-10-14T21:59:06.106Z,6.72
2022-10-14T22:01:32.864Z,7.80
2022-10-14T22:04:03.618Z,7.10
2022-10-14T22:06:31.624Z,6.90
2022-10-14T22:09:00.077Z,7.80
2022-10-14T22:11:33.133Z,6.47
2022-10-14T22:14:01.677Z,8.73
2022-10-14T22:16:29.390Z,7.53
2022-10-14T22:18:59.047Z,6.55
2022-10-14T22:21:27.189Z,8.32
2022-10-14T22:23:53.895Z,7.95
2022-10-14T22:26:23.398Z,7.43
2022-10-14T22:28:50.878Z,8.35
2022-10-14T22:31:20.653Z,8.93
2022-10-14T22:33:48.136Z,10.23
2022-10-14T22:36:23.521Z,7.03
2022-10-14T22:38:53.439Z,14.20
2022-10-14T22:41:20.983Z,7.30
2022-10-14T22:43:49.615Z,7.50
2022-10-14T22:46:20.043Z,9.25
2022-10-14T22:48:47.672Z,7.50
2022-10-14T22:51:17.711Z,6.88
2022-10-14T22:56:14.381Z,6.68
2022-10-14T22:58:41.453Z,9.90
2022-10-14T23:01:17.122Z,9.10
2022-10-14T23:03:44.089Z,8.30
2022-10-14T23:06:13.483Z,9.98
2022-10-14T23:08:41.175Z,9.07
2022-10-14T23:11:10.103Z,9.43
2022-10-14T23:13:36.622Z,6.00
2022-10-14T23:16:06.174Z,8.57
2022-10-14T23:18:36.287Z,6.80
2022-10-14T23:21:08.868Z,5.82
2022-10-14T23:23:35.457Z,7.47
2022-10-14T23:26:01.949Z,7.10
2022-10-14T23:28:28.526Z,6.18
2022-10-14T23:30:55.041Z,6.53
2022-10-14T23:33:22.353Z,7.25
2022-10-14T23:35:48.824Z,7.97
2022-10-14T23:38:15.355Z,7.57
2022-10-14T23:40:41.912Z,6.25
2022-10-14T23:43:08.945Z,15.45
2022-10-14T23:45:35.447Z,6.78
2022-10-14T23:48:01.905Z,8.07
2022-10-14T23:50:28.378Z,6.50
2022-10-14T23:52:54.833Z,11.68
2022-10-14T23:55:21.341Z,7.50
2022-10-14T23:57:47.869Z,6.65
